createdAt,value
2022-08-07T00:02:36.453Z,45.94
2022-08-07T00:05:05.829Z,46.12
2022-08-07T00:07:40.497Z,46.16
2022-08-07T00:10:30.678Z,45.84
2022-08-07T00:13:02.021Z,45.63
2022-08-07T00:15:38.383Z,45.71
2022-08-07T00:18:19.686Z,45.66
2022-08-07T00:24:55.109Z,45.93
2022-08-07T00:27:23.782Z,46.26
2022-08-07T00:29:55.305Z,46.32
2022-08-07T00:32:28.484Z,46.62
2022-08-07T00:34:56.637Z,46.15
2022-08-07T00:37:29.402Z,46.28
2022-08-07T00:40:15.372Z,46.18
2022-08-07T00:43:03.353Z,46.32
2022-08-07T00:45:37.798Z,45.88
2022-08-07T00:48:11.071Z,45.58
2022-08-07T00:50:51.050Z,45.69
2022-08-07T00:53:23.672Z,46.22
2022-08-07T00:56:00.867Z,45.57
2022-08-07T00:58:36.490Z,45.94
2022-08-07T01:01:06.920Z,45.20
2022-08-07T01:03:56.734Z,45.56
2022-08-07T01:06:33.759Z,45.81
2022-08-07T01:09:08.025Z,45.70
2022-08-07T01:12:27.514Z,45.62
2022-08-07T01:14:30.569Z,45.47
2022-08-07T01:17:07.084Z,45.43
2022-08-07T01:19:39.976Z,45.79
2022-08-07T01:22:22.836Z,45.24
2022-08-07T01:25:00.427Z,45.56
2022-08-07T01:27:34.524Z,45.24
2022-08-07T01:30:08.395Z,45.33
2022-08-07T01:32:41.437Z,46.29
2022-08-07T01:35:12.777Z,45.70
2022-08-07T01:37:49.460Z,45.71
2022-08-07T01:40:23.615Z,45.84
2022-08-07T01:43:03.308Z,46.04
2022-08-07T01:45:46.566Z,46.04
2022-08-07T01:48:29.242Z,45.42
2022-08-07T01:51:24.444Z,45.79
2022-08-07T01:54:08.481Z,46.26
2022-08-07T01:56:49.420Z,46.01
2022-08-07T01:59:24.787Z,45.95
2022-08-07T02:02:06.351Z,45.72
2022-08-07T02:04:52.590Z,45.74
2022-08-07T02:07:44.969Z,45.58
2022-08-07T02:10:27.968Z,45.53
2022-08-07T02:13:01.124Z,45.34
2022-08-07T02:15:39.040Z,45.45
2022-08-07T02:18:11.083Z,45.70
2022-08-07T02:20:41.273Z,45.77
2022-08-07T02:23:11.672Z,45.23
2022-08-07T02:26:30.830Z,45.92
2022-08-07T02:28:34.173Z,45.61
2022-08-07T02:31:18.885Z,46.32
2022-08-07T02:34:03.979Z,45.97
2022-08-07T02:36:45.307Z,45.91
2022-08-07T02:39:43.870Z,45.72
2022-08-07T02:42:14.538Z,46.28
2022-08-07T02:44:48.321Z,46.28
2022-08-07T02:47:23.501Z,46.52
2022-08-07T02:49:59.609Z,46.71
2022-08-07T02:52:37.260Z,46.36
2022-08-07T02:55:27.251Z,46.69
2022-08-07T02:58:03.554Z,46.93
2022-08-07T03:00:35.471Z,46.98
2022-08-07T03:03:07.017Z,46.49
2022-08-07T03:05:45.649Z,47.08
2022-08-07T03:08:16.443Z,46.82
2022-08-07T03:10:50.637Z,47.01
2022-08-07T03:13:30.204Z,46.73
2022-08-07T03:16:14.968Z,46.51
2022-08-07T03:18:46.049Z,46.33
2022-08-07T03:21:20.678Z,46.42
2022-08-07T03:24:17.897Z,46.32
2022-08-07T03:26:58.199Z,46.54
2022-08-07T03:29:46.117Z,46.44
2022-08-07T03:32:28.410Z,46.46
2022-08-07T03:35:18.113Z,46.39
2022-08-07T03:37:56.429Z,46.64
2022-08-07T03:40:36.184Z,46.74
2022-08-07T03:43:14.530Z,46.28
2022-08-07T03:45:50.170Z,46.10
2022-08-07T03:48:27.513Z,45.92
2022-08-07T03:51:03.044Z,46.03
2022-08-07T03:54:05.932Z,45.78
2022-08-07T03:56:35.976Z,45.89
2022-08-07T03:59:13.341Z,45.87
2022-08-07T04:01:55.885Z,46.10
2022-08-07T04:04:27.913Z,45.72
2022-08-07T04:07:17.519Z,46.20
2022-08-07T04:09:52.377Z,45.73
2022-08-07T04:12:29.089Z,45.37
2022-08-07T04:15:05.090Z,45.60
2022-08-07T04:18:57.653Z,45.02
2022-08-07T04:20:35.500Z,45.10
2022-08-07T04:23:09.602Z,46.04
2022-08-07T04:25:53.432Z,45.74
2022-08-07T04:28:26.856Z,45.22
2022-08-07T04:30:59.101Z,45.26
2022-08-07T04:33:40.154Z,45.55
2022-08-07T04:36:10.016Z,45.59
2022-08-07T04:38:43.313Z,44.78
2022-08-07T04:41:19.135Z,44.79
2022-08-07T04:44:12.364Z,45.46
2022-08-07T04:47:04.008Z,45.32
2022-08-07T04:49:58.158Z,45.29
2022-08-07T04:52:51.011Z,45.47
2022-08-07T04:58:12.435Z,46.08
2022-08-07T04:58:32.101Z,45.59
2022-08-07T05:01:18.964Z,45.95
2022-08-07T05:04:06.665Z,46.71
2022-08-07T05:06:52.911Z,46.14
2022-08-07T05:09:43.184Z,46.37
2022-08-07T05:12:26.496Z,46.14
2022-08-07T05:15:21.664Z,46.08
2022-08-07T05:18:00.866Z,46.39
2022-08-07T05:20:37.098Z,46.54
2022-08-07T05:23:16.045Z,45.95
2022-08-07T05:26:11.506Z,45.79
2022-08-07T05:28:40.472Z,46.12
2022-08-07T05:31:16.947Z,46.78
2022-08-07T05:33:51.288Z,47.22
2022-08-07T05:36:40.525Z,47.41
2022-08-07T05:40:13.485Z,47.38
2022-08-07T05:42:15.159Z,46.97
2022-08-07T05:45:14.594Z,46.77
2022-08-07T05:48:01.242Z,46.85
2022-08-07T05:50:43.310Z,47.06
2022-08-07T05:54:12.001Z,47.43
2022-08-07T05:56:14.990Z,47.29
2022-08-07T05:58:53.060Z,47.54
2022-08-07T06:01:35.619Z,47.97
2022-08-07T06:04:11.006Z,47.58
2022-08-07T06:06:46.204Z,46.97
2022-08-07T06:09:20.772Z,47.16
2022-08-07T06:12:15.346Z,47.22
2022-08-07T06:14:49.682Z,46.99
2022-08-07T06:17:23.287Z,47.65
2022-08-07T06:20:12.550Z,47.84
2022-08-07T06:23:02.153Z,48.24
2022-08-07T06:25:54.024Z,47.82
2022-08-07T06:28:28.662Z,48.00
2022-08-07T06:30:59.980Z,47.73
2022-08-07T06:33:33.153Z,48.03
2022-08-07T06:36:12.043Z,47.66
2022-08-07T06:40:16.739Z,47.29
2022-08-07T06:42:26.602Z,47.58
2022-08-07T06:45:26.322Z,47.89
2022-08-07T06:48:00.422Z,47.97
2022-08-07T06:50:43.260Z,48.58
2022-08-07T06:54:11.860Z,48.23
2022-08-07T06:56:15.383Z,48.52
2022-08-07T07:00:11.760Z,48.46
2022-08-07T07:01:51.073Z,48.46
2022-08-07T07:04:32.941Z,48.17
2022-08-07T07:07:10.737Z,48.83
2022-08-07T07:10:01.287Z,49.52
2022-08-07T07:12:48.453Z,48.74
2022-08-07T07:15:26.226Z,48.72
2022-08-07T07:18:05.537Z,48.58
2022-08-07T07:20:38.927Z,49.20
2022-08-07T07:24:09.212Z,49.00
2022-08-07T07:26:33.964Z,49.74
2022-08-07T07:29:39.867Z,48.76
2022-08-07T07:32:03.188Z,48.92
2022-08-07T07:34:36.425Z,49.01
2022-08-07T07:37:21.830Z,49.40
2022-08-07T07:40:14.694Z,48.94
2022-08-07T07:42:53.760Z,48.91
2022-08-07T07:46:36.484Z,48.19
2022-08-07T07:48:24.299Z,47.39
2022-08-07T07:51:08.564Z,47.87
2022-08-07T07:53:51.532Z,47.26
2022-08-07T07:56:30.092Z,47.34
2022-08-07T07:59:01.558Z,47.29
2022-08-07T08:02:02.046Z,46.74
2022-08-07T08:04:25.917Z,46.74
2022-08-07T08:07:00.666Z,46.56
2022-08-07T08:09:32.986Z,47.07
2022-08-07T08:12:51.126Z,48.16
2022-08-07T08:15:10.341Z,46.48
2022-08-07T08:17:57.912Z,47.12
2022-08-07T08:20:31.922Z,46.80
2022-08-07T08:23:20.658Z,46.18
2022-08-07T08:26:25.158Z,46.99
2022-08-07T08:28:56.863Z,46.73
2022-08-07T08:31:58.452Z,46.67
2022-08-07T08:34:27.287Z,46.82
2022-08-07T08:36:59.557Z,47.26
2022-08-07T08:39:39.523Z,47.25
2022-08-07T08:42:24.948Z,47.55
2022-08-07T08:45:04.166Z,48.19
2022-08-07T08:47:52.174Z,47.36
2022-08-07T08:50:34.941Z,46.81
2022-08-07T08:53:19.503Z,46.34
2022-08-07T08:55:58.660Z,47.00
2022-08-07T08:58:39.431Z,46.65
2022-08-07T09:01:18.626Z,47.30
2022-08-07T09:03:59.083Z,47.36
2022-08-07T09:06:42.720Z,46.34
2022-08-07T09:09:37.642Z,45.27
2022-08-07T09:12:30.237Z,46.71
2022-08-07T09:16:25.297Z,45.71
2022-08-07T09:18:53.002Z,45.59
2022-08-07T09:22:23.145Z,44.73
2022-08-07T09:24:59.403Z,44.11
2022-08-07T09:27:59.563Z,44.78
2022-08-07T09:30:39.391Z,44.47
2022-08-07T09:33:52.846Z,44.43
2022-08-07T09:36:30.194Z,44.25
2022-08-07T09:39:54.219Z,43.62
2022-08-07T09:42:33.684Z,43.68
2022-08-07T09:47:24.546Z,42.61
2022-08-07T09:48:19.435Z,42.84
2022-08-07T09:51:02.586Z,43.36
2022-08-07T09:53:48.898Z,42.34
2022-08-07T09:56:46.385Z,42.44
2022-08-07T10:00:00.217Z,42.88
2022-08-07T10:04:05.331Z,42.71
2022-08-07T10:07:00.040Z,41.59
2022-08-07T10:10:01.131Z,42.67
2022-08-07T10:13:03.625Z,41.19
2022-08-07T10:15:48.112Z,41.80
2022-08-07T10:18:39.805Z,39.26
2022-08-07T10:22:12.448Z,39.47
2022-08-07T10:24:28.224Z,38.74
2022-08-07T10:27:46.660Z,39.46
2022-08-07T10:30:20.088Z,38.65
2022-08-07T10:34:06.968Z,37.99
2022-08-07T10:36:29.874Z,39.64
2022-08-07T10:39:05.860Z,39.29
2022-08-07T10:41:53.130Z,38.20
2022-08-07T10:44:37.745Z,37.57
2022-08-07T10:47:27.061Z,38.71
2022-08-07T10:50:17.053Z,39.59
2022-08-07T10:53:05.147Z,39.70
2022-08-07T10:55:49.121Z,40.19
2022-08-07T10:58:36.723Z,39.89
2022-08-07T11:01:35.752Z,39.78
2022-08-07T11:04:31.975Z,40.25
2022-08-07T11:07:14.988Z,39.84
2022-08-07T11:10:09.469Z,39.94
2022-08-07T11:12:49.173Z,39.45
2022-08-07T11:15:35.714Z,40.69
2022-08-07T11:18:15.968Z,38.98
2022-08-07T11:20:54.975Z,39.18
2022-08-07T11:23:38.393Z,37.89
2022-08-07T11:26:14.614Z,37.71
2022-08-07T11:29:42.025Z,38.00
2022-08-07T11:32:45.860Z,39.34
2022-08-07T11:35:25.342Z,38.90
2022-08-07T11:38:17.582Z,39.71
2022-08-07T11:40:54.645Z,38.86
2022-08-07T11:43:29.526Z,38.90
2022-08-07T11:46:24.143Z,39.95
2022-08-07T11:50:11.250Z,39.84
2022-08-07T11:52:48.552Z,40.20
2022-08-07T11:56:09.395Z,39.24
2022-08-07T11:58:42.554Z,39.02
2022-08-07T12:01:58.633Z,38.42
2022-08-07T12:04:49.361Z,38.68
2022-08-07T12:07:26.837Z,38.02
2022-08-07T12:10:12.991Z,38.45
2022-08-07T12:12:49.787Z,39.04
2022-08-07T12:16:05.094Z,38.68
2022-08-07T12:18:29.627Z,37.52
2022-08-07T12:21:55.062Z,37.27
2022-08-07T12:24:38.162Z,37.40
2022-08-07T12:27:16.683Z,37.78
2022-08-07T12:29:55.736Z,37.72
2022-08-07T12:32:33.531Z,38.69
2022-08-07T12:35:08.206Z,39.44
2022-08-07T12:38:10.293Z,40.79
2022-08-07T12:40:50.129Z,41.34
2022-08-07T12:44:01.381Z,41.97
2022-08-07T12:46:32.500Z,41.08
2022-08-07T12:49:39.366Z,41.62
2022-08-07T12:52:17.138Z,41.92
2022-08-07T12:55:05.293Z,41.14
2022-08-07T12:57:59.510Z,41.75
2022-08-07T13:00:50.303Z,41.91
2022-08-07T13:03:59.211Z,42.41
2022-08-07T13:07:07.147Z,41.96
2022-08-07T13:10:19.956Z,42.12
2022-08-07T13:13:03.230Z,41.75
2022-08-07T13:15:45.763Z,41.46
2022-08-07T13:18:28.394Z,40.54
2022-08-07T13:21:04.744Z,41.10
2022-08-07T13:24:02.118Z,40.14
2022-08-07T13:26:46.276Z,38.80
2022-08-07T13:29:23.432Z,38.95
2022-08-07T13:32:23.672Z,38.68
2022-08-07T13:35:22.550Z,38.78
2022-08-07T13:38:19.253Z,39.87
2022-08-07T13:41:03.191Z,39.36
2022-08-07T13:43:34.353Z,39.02
2022-08-07T13:46:23.257Z,38.72
2022-08-07T13:49:01.889Z,38.46
2022-08-07T13:52:22.352Z,37.69
2022-08-07T13:54:28.880Z,36.65
2022-08-07T13:57:04.542Z,37.66
2022-08-07T13:59:39.678Z,37.72
2022-08-07T14:02:14.641Z,38.65
2022-08-07T14:04:55.578Z,38.56
2022-08-07T14:07:31.379Z,38.00
2022-08-07T14:10:16.552Z,38.34
2022-08-07T14:12:56.103Z,38.04
2022-08-07T14:15:40.524Z,37.91
2022-08-07T14:18:29.303Z,38.40
2022-08-07T14:21:21.012Z,38.07
2022-08-07T14:24:19.556Z,37.43
2022-08-07T14:26:56.889Z,37.87
2022-08-07T14:30:06.413Z,37.78
2022-08-07T14:35:44.777Z,37.51
2022-08-07T14:38:30.476Z,37.50
2022-08-07T14:41:04.870Z,38.34
2022-08-07T14:46:33.403Z,38.51
2022-08-07T14:49:57.551Z,38.18
2022-08-07T14:54:54.044Z,38.94
2022-08-07T15:00:20.871Z,37.91
2022-08-07T15:03:18.834Z,38.62
2022-08-07T15:05:54.952Z,37.60
2022-08-07T15:08:50.205Z,37.86
2022-08-07T15:14:25.403Z,37.82
2022-08-07T15:17:05.793Z,38.12
2022-08-07T15:22:53.581Z,38.32
2022-08-07T15:25:36.528Z,37.96
2022-08-07T15:28:33.173Z,37.75
2022-08-07T15:34:02.536Z,36.93
2022-08-07T15:37:04.162Z,36.24
2022-08-07T15:39:57.183Z,36.14
2022-08-07T15:43:01.664Z,36.07
2022-08-07T15:54:23.630Z,35.80
2022-08-07T15:57:01.563Z,35.55
2022-08-07T15:59:39.603Z,34.80
2022-08-07T16:02:29.063Z,35.88
2022-08-07T16:05:05.605Z,36.10
2022-08-07T16:08:30.668Z,37.21
2022-08-07T16:10:47.359Z,36.19
2022-08-07T16:14:03.433Z,36.04
2022-08-07T16:16:49.190Z,37.31
2022-08-07T16:23:55.331Z,38.06
2022-08-07T16:26:59.537Z,39.18
2022-08-07T16:30:09.137Z,39.68
2022-08-07T16:32:54.381Z,40.03
2022-08-07T16:35:52.003Z,40.36
2022-08-07T16:39:01.412Z,40.90
2022-08-07T16:42:00.963Z,41.88
2022-08-07T16:45:15.030Z,42.16
2022-08-07T16:48:17.124Z,42.80
2022-08-07T16:51:54.560Z,43.63
2022-08-07T16:54:19.108Z,43.61
2022-08-07T16:56:56.573Z,44.13
2022-08-07T16:59:46.150Z,44.50
2022-08-07T17:02:52.351Z,44.62
2022-08-07T17:06:18.971Z,44.64
2022-08-07T17:09:08.737Z,45.29
2022-08-07T17:12:05.268Z,45.74
2022-08-07T17:14:39.093Z,46.00
2022-08-07T17:17:17.976Z,46.10
2022-08-07T17:20:02.885Z,46.02
2022-08-07T17:22:42.722Z,46.34
2022-08-07T17:25:51.386Z,46.43
2022-08-07T17:28:19.573Z,46.07
2022-08-07T17:30:59.372Z,46.44
2022-08-07T17:34:08.326Z,46.72
2022-08-07T17:36:32.962Z,46.17
2022-08-07T17:39:52.980Z,45.32
2022-08-07T17:42:59.155Z,45.48
2022-08-07T17:45:52.367Z,45.10
2022-08-07T17:48:30.999Z,45.12
2022-08-07T17:51:05.878Z,45.09
2022-08-07T17:54:01.377Z,44.71
2022-08-07T17:56:49.477Z,44.74
2022-08-07T17:59:26.769Z,44.95
2022-08-07T18:02:08.626Z,44.63
2022-08-07T18:04:48.519Z,44.69
2022-08-07T18:07:28.585Z,44.65
2022-08-07T18:10:32.276Z,44.97
2022-08-07T18:13:15.420Z,45.21
2022-08-07T18:16:00.038Z,44.87
2022-08-07T18:19:02.565Z,45.83
2022-08-07T18:21:51.686Z,45.50
2022-08-07T18:24:33.202Z,45.13
2022-08-07T18:27:20.926Z,45.41
2022-08-07T18:30:07.621Z,45.48
2022-08-07T18:33:30.018Z,45.27
2022-08-07T18:36:15.840Z,45.45
2022-08-07T18:40:08.567Z,45.48
2022-08-07T18:42:04.553Z,46.06
2022-08-07T18:45:43.854Z,45.90
2022-08-07T18:47:45.161Z,45.71
2022-08-07T18:50:46.729Z,46.00
2022-08-07T18:53:33.456Z,45.58
2022-08-07T18:56:18.482Z,46.16
2022-08-07T18:59:07.080Z,46.14
2022-08-07T19:02:19.787Z,46.03
2022-08-07T19:04:56.212Z,46.05
2022-08-07T19:08:03.838Z,46.55
2022-08-07T19:10:52.347Z,46.04
2022-08-07T19:13:27.422Z,46.19
2022-08-07T19:17:00.376Z,46.09
2022-08-07T19:19:01.411Z,46.20
2022-08-07T19:21:51.340Z,46.38
2022-08-07T19:24:32.127Z,46.19
2022-08-07T19:28:58.101Z,46.05
2022-08-07T19:31:03.179Z,46.48
2022-08-07T19:33:13.413Z,46.11
2022-08-07T19:35:48.279Z,46.62
2022-08-07T19:38:21.697Z,46.75
2022-08-07T19:40:58.607Z,46.68
2022-08-07T19:43:50.357Z,46.51
2022-08-07T19:46:29.042Z,46.63
2022-08-07T19:49:12.774Z,46.73
2022-08-07T19:52:18.186Z,46.27
2022-08-07T19:55:00.092Z,46.33
2022-08-07T19:58:02.803Z,46.64
2022-08-07T20:00:35.706Z,46.94
2022-08-07T20:03:34.960Z,46.88
2022-08-07T20:06:04.801Z,46.78
2022-08-07T20:08:48.758Z,46.60
2022-08-07T20:12:00.902Z,47.03
2022-08-07T20:14:20.835Z,46.94
2022-08-07T20:17:08.252Z,47.39
2022-08-07T20:19:49.353Z,47.07
2022-08-07T20:22:34.241Z,47.04
2022-08-07T20:25:19.929Z,47.44
2022-08-07T20:27:59.333Z,46.92
2022-08-07T20:34:07.482Z,46.93
2022-08-07T20:36:50.572Z,47.24
2022-08-07T20:39:52.016Z,47.23
2022-08-07T20:42:21.710Z,46.98
2022-08-07T20:44:54.670Z,47.07
2022-08-07T20:47:56.911Z,47.45
2022-08-07T20:50:21.415Z,47.06
2022-08-07T20:52:51.848Z,46.89
2022-08-07T20:55:23.783Z,47.22
2022-08-07T20:58:02.501Z,47.90
2022-08-07T21:00:42.198Z,47.25
2022-08-07T21:03:15.491Z,47.65
2022-08-07T21:05:54.630Z,47.73
2022-08-07T21:08:36.941Z,47.65
2022-08-07T21:11:11.988Z,47.47
2022-08-07T21:14:33.617Z,47.29
2022-08-07T21:18:20.782Z,46.84
2022-08-07T21:20:26.606Z,46.94
2022-08-07T21:23:08.256Z,46.89
2022-08-07T21:25:58.689Z,47.03
2022-08-07T21:28:49.267Z,46.98
2022-08-07T21:31:49.857Z,46.94
2022-08-07T21:34:32.144Z,46.88
2022-08-07T21:37:21.335Z,47.43
2022-08-07T21:40:03.725Z,47.40
2022-08-07T21:42:46.243Z,47.55
2022-08-07T21:46:07.725Z,47.32
2022-08-07T21:48:28.880Z,47.37
2022-08-07T21:51:19.823Z,47.62
2022-08-07T21:54:30.065Z,47.83
2022-08-07T21:57:31.308Z,47.85
2022-08-07T22:00:22.162Z,47.49
2022-08-07T22:03:00.070Z,47.94
2022-08-07T22:05:45.489Z,48.32
2022-08-07T22:08:19.846Z,48.14
2022-08-07T22:10:51.849Z,48.36
2022-08-07T22:13:52.039Z,48.56
2022-08-07T22:16:43.041Z,48.07
2022-08-07T22:19:09.829Z,48.60
2022-08-07T22:22:04.927Z,48.64
2022-08-07T22:24:42.479Z,48.53
2022-08-07T22:27:21.270Z,48.76
2022-08-07T22:30:15.519Z,48.95
2022-08-07T22:33:07.069Z,48.45
2022-08-07T22:35:57.110Z,48.78
2022-08-07T22:38:41.664Z,48.48
2022-08-07T22:41:29.306Z,48.97
2022-08-07T22:44:24.538Z,48.81
2022-08-07T22:47:26.016Z,49.15
2022-08-07T22:50:20.937Z,49.41
2022-08-07T22:53:17.578Z,49.45
2022-08-07T22:56:02.656Z,49.77
2022-08-07T22:58:52.542Z,49.75
2022-08-07T23:01:50.355Z,49.96
2022-08-07T23:04:57.857Z,49.58
2022-08-07T23:07:56.398Z,49.75
2022-08-07T23:10:42.293Z,49.33
2022-08-07T23:13:48.847Z,50.16
2022-08-07T23:16:55.363Z,49.53
2022-08-07T23:20:03.017Z,50.16
2022-08-07T23:22:52.353Z,50.18
2022-08-07T23:25:33.550Z,49.85
2022-08-07T23:28:28.677Z,50.01
2022-08-07T23:31:42.609Z,50.14
2022-08-07T23:34:37.681Z,49.85
2022-08-07T23:38:01.291Z,51.08
2022-08-07T23:40:39.649Z,51.45
2022-08-07T23:43:41.666Z,51.13
2022-08-07T23:46:34.135Z,50.78
2022-08-07T23:49:25.702Z,50.89
2022-08-07T23:53:05.615Z,51.50
2022-08-07T23:55:53.045Z,52.09
2022-08-07T23:58:36.293Z,51.89
